createdAt,value
2018-02-07T00:00:10.705Z,26.40
2018-02-07T00:02:39.976Z,24.97
2018-02-07T00:05:09.219Z,21.27
2018-02-07T00:07:39.330Z,24.90
2018-02-07T00:10:09.382Z,23.43
2018-02-07T00:12:38.630Z,20.73
2018-02-07T00:15:09.402Z,26.73
2018-02-07T00:17:38.670Z,26.73
2018-02-07T00:20:07.966Z,22.73
2018-02-07T00:22:37.561Z,25.13
2018-02-07T00:25:06.837Z,26.33
2018-02-07T00:27:36.086Z,17.83
2018-02-07T00:30:05.377Z,29.17
2018-02-07T00:32:34.631Z,26.07
2018-02-07T00:35:03.876Z,32.70
2018-02-07T00:37:33.157Z,35.90
2018-02-07T00:40:02.415Z,26.70
2018-02-07T00:42:31.693Z,37.13
2018-02-07T00:45:00.936Z,28.00
2018-02-07T00:47:30.198Z,34.37
2018-02-07T00:49:59.449Z,20.67
2018-02-07T00:52:28.717Z,28.83
2018-02-07T00:54:58.718Z,29.27
2018-02-07T00:57:28.753Z,31.83
2018-02-07T00:59:58.021Z,33.93
2018-02-07T01:02:27.302Z,34.93
2018-02-07T01:04:56.604Z,22.60
2018-02-07T01:07:25.862Z,55.53
2018-02-07T01:09:55.137Z,28.43
2018-02-07T01:12:25.158Z,47.13
2018-02-07T01:14:54.409Z,43.13
2018-02-07T01:17:23.690Z,25.80
2018-02-07T01:19:52.944Z,35.43
2018-02-07T01:22:22.225Z,25.70
2018-02-07T01:24:51.715Z,30.97
2018-02-07T01:27:20.958Z,34.30
2018-02-07T01:29:51.000Z,36.83
2018-02-07T01:32:21.017Z,41.87
2018-02-07T01:34:50.266Z,30.17
2018-02-07T01:37:19.548Z,29.90
2018-02-07T01:39:48.797Z,31.33
2018-02-07T01:42:18.061Z,26.83
2018-02-07T01:44:47.330Z,31.17
2018-02-07T01:47:16.602Z,27.20
2018-02-07T01:49:45.874Z,27.17
2018-02-07T01:52:15.143Z,26.20
2018-02-07T01:54:44.448Z,20.60
2018-02-07T01:57:14.420Z,32.73
2018-02-07T01:59:43.701Z,29.30
2018-02-07T02:02:12.954Z,30.13
2018-02-07T02:04:42.254Z,46.27
2018-02-07T02:07:11.509Z,38.60
2018-02-07T02:09:41.045Z,31.43
2018-02-07T02:12:11.134Z,32.07
2018-02-07T02:14:40.386Z,29.10
2018-02-07T02:17:09.684Z,28.67
2018-02-07T02:19:38.933Z,33.30
2018-02-07T02:22:08.188Z,40.90
2018-02-07T02:24:37.479Z,38.27
2018-02-07T02:27:07.501Z,29.47
2018-02-07T02:29:36.773Z,34.93
2018-02-07T02:32:06.040Z,46.30
2018-02-07T02:34:35.299Z,46.10
2018-02-07T02:37:05.330Z,33.63
2018-02-07T02:39:34.585Z,37.00
2018-02-07T02:42:03.836Z,32.27
2018-02-07T02:44:33.116Z,26.00
2018-02-07T02:47:03.190Z,39.77
2018-02-07T02:49:32.483Z,34.53
2018-02-07T02:52:01.738Z,40.10
2018-02-07T02:54:31.142Z,34.20
2018-02-07T02:57:01.158Z,31.83
2018-02-07T02:59:30.429Z,38.87
2018-02-07T03:01:59.710Z,43.40
2018-02-07T03:04:28.962Z,33.03
2018-02-07T03:06:58.223Z,32.07
2018-02-07T03:09:28.262Z,40.70
2018-02-07T03:11:57.529Z,32.50
2018-02-07T03:14:27.672Z,33.80
2018-02-07T03:16:56.925Z,37.80
2018-02-07T03:19:26.318Z,37.50
2018-02-07T03:21:56.450Z,31.47
2018-02-07T03:24:25.704Z,35.17
2018-02-07T03:26:54.993Z,34.37
2018-02-07T03:29:24.272Z,32.73
2018-02-07T03:31:53.521Z,45.77
2018-02-07T03:34:23.541Z,30.90
2018-02-07T03:36:52.817Z,35.97
2018-02-07T03:39:23.618Z,35.80
2018-02-07T03:41:52.873Z,39.03
2018-02-07T03:44:22.138Z,29.50
2018-02-07T03:46:51.397Z,42.53
2018-02-07T03:49:20.672Z,36.50
2018-02-07T03:51:50.701Z,38.20
2018-02-07T03:54:19.957Z,30.30
2018-02-07T03:56:49.209Z,39.10
2018-02-07T03:59:18.473Z,36.83
2018-02-07T04:01:47.762Z,33.97
2018-02-07T04:04:17.105Z,42.33
2018-02-07T04:06:47.142Z,47.27
2018-02-07T04:09:16.455Z,28.57
2018-02-07T04:11:45.705Z,30.40
2018-02-07T04:14:15.020Z,37.07
2018-02-07T04:16:44.270Z,31.77
2018-02-07T04:19:13.659Z,32.97
2018-02-07T04:21:42.878Z,41.00
2018-02-07T04:24:12.318Z,34.00
2018-02-07T04:26:41.581Z,41.50
2018-02-07T04:29:11.536Z,38.03
2018-02-07T04:31:41.586Z,48.33
2018-02-07T04:34:10.852Z,30.90
2018-02-07T04:36:40.120Z,41.20
2018-02-07T04:39:09.372Z,36.90
2018-02-07T04:41:39.396Z,37.83
2018-02-07T04:44:08.670Z,43.57
2018-02-07T04:46:39.451Z,40.80
2018-02-07T04:49:08.808Z,41.70
2018-02-07T04:51:38.093Z,41.30
2018-02-07T04:54:07.387Z,36.60
2018-02-07T04:56:36.652Z,36.23
2018-02-07T04:59:05.917Z,33.73
2018-02-07T05:01:35.173Z,30.87
2018-02-07T05:04:04.450Z,37.43
2018-02-07T05:06:33.696Z,44.27
2018-02-07T05:09:02.977Z,37.53
2018-02-07T05:11:32.317Z,25.37
2018-02-07T05:14:02.321Z,39.50
2018-02-07T05:16:31.576Z,33.87
2018-02-07T05:19:01.009Z,26.80
2018-02-07T05:21:30.258Z,26.10
2018-02-07T05:23:59.738Z,26.83
2018-02-07T05:26:29.020Z,39.23
2018-02-07T05:28:58.310Z,37.20
2018-02-07T05:31:27.626Z,42.33
2018-02-07T05:33:56.889Z,37.40
2018-02-07T05:36:26.178Z,29.70
2018-02-07T05:38:55.609Z,34.07
2018-02-07T05:41:25.644Z,38.97
2018-02-07T05:43:54.910Z,30.10
2018-02-07T05:46:24.176Z,36.43
2018-02-07T05:48:53.442Z,41.53
2018-02-07T05:51:22.708Z,36.97
2018-02-07T05:53:51.986Z,34.10
2018-02-07T05:56:21.264Z,34.67
2018-02-07T05:58:50.544Z,29.20
2018-02-07T06:01:19.825Z,37.33
2018-02-07T06:03:49.096Z,32.20
2018-02-07T06:06:18.373Z,45.03
2018-02-07T06:08:47.662Z,41.93
2018-02-07T06:11:16.952Z,37.20
2018-02-07T06:13:47.099Z,41.53
2018-02-07T06:16:16.575Z,32.73
2018-02-07T06:18:46.580Z,38.77
2018-02-07T06:21:15.850Z,28.80
2018-02-07T06:23:45.148Z,42.00
2018-02-07T06:26:14.426Z,33.50
2018-02-07T06:28:43.676Z,30.23
2018-02-07T06:31:12.936Z,36.37
2018-02-07T06:33:42.197Z,33.87
2018-02-07T06:36:11.469Z,46.97
2018-02-07T06:38:41.598Z,34.07
2018-02-07T06:41:10.844Z,36.17
2018-02-07T06:43:40.117Z,34.80
2018-02-07T06:46:09.377Z,42.97
2018-02-07T06:48:38.649Z,39.70
2018-02-07T06:51:07.913Z,37.37
2018-02-07T06:53:37.357Z,33.40
2018-02-07T06:56:07.541Z,40.07
2018-02-07T06:58:36.818Z,40.77
2018-02-07T07:01:06.887Z,55.72
2018-02-07T07:03:36.164Z,38.30
2018-02-07T07:06:05.437Z,47.37
2018-02-07T07:08:34.697Z,43.47
2018-02-07T07:11:04.094Z,34.93
2018-02-07T07:13:33.344Z,33.17
2018-02-07T07:16:02.610Z,39.80
2018-02-07T07:18:31.861Z,40.73
2018-02-07T07:21:01.145Z,36.23
2018-02-07T07:23:30.412Z,35.03
2018-02-07T07:26:00.448Z,37.87
2018-02-07T07:28:29.702Z,39.20
2018-02-07T07:30:59.057Z,38.03
2018-02-07T07:33:28.337Z,38.80
2018-02-07T07:35:57.593Z,32.17
2018-02-07T07:38:26.886Z,33.77
2018-02-07T07:40:56.139Z,44.40
2018-02-07T07:43:25.403Z,45.60
2018-02-07T07:45:54.645Z,35.30
2018-02-07T07:48:23.926Z,37.43
2018-02-07T07:50:53.174Z,35.00
2018-02-07T07:53:22.686Z,47.93
2018-02-07T07:55:51.969Z,43.70
2018-02-07T07:58:21.235Z,38.00
2018-02-07T08:00:50.497Z,40.50
2018-02-07T08:03:19.759Z,37.43
2018-02-07T08:05:49.009Z,40.87
2018-02-07T08:08:18.266Z,38.63
2018-02-07T08:10:47.565Z,41.50
2018-02-07T08:13:16.797Z,36.03
2018-02-07T08:15:46.058Z,32.57
2018-02-07T08:18:15.441Z,41.13
2018-02-07T08:20:44.689Z,46.37
2018-02-07T08:23:13.967Z,35.33
2018-02-07T08:25:43.439Z,32.50
2018-02-07T08:28:12.775Z,45.30
2018-02-07T08:30:42.076Z,35.83
2018-02-07T08:33:11.349Z,36.90
2018-02-07T08:35:41.383Z,44.43
2018-02-07T08:38:10.653Z,47.70
2018-02-07T08:40:41.450Z,49.73
2018-02-07T08:43:10.701Z,38.17
2018-02-07T08:45:39.961Z,44.93
2018-02-07T08:48:09.363Z,46.53
2018-02-07T08:50:38.642Z,48.97
2018-02-07T08:53:07.894Z,49.23
2018-02-07T08:55:37.173Z,52.77
2018-02-07T08:58:06.435Z,45.80
2018-02-07T09:00:35.698Z,52.07
2018-02-07T09:03:05.806Z,44.27
2018-02-07T09:05:35.056Z,44.27
2018-02-07T09:08:04.329Z,47.20
2018-02-07T09:10:33.585Z,48.47
2018-02-07T09:13:02.853Z,42.73
2018-02-07T09:15:34.101Z,53.10
2018-02-07T09:18:03.365Z,45.90
2018-02-07T09:20:34.137Z,46.23
2018-02-07T09:23:04.153Z,40.77
2018-02-07T09:25:34.200Z,48.37
2018-02-07T09:28:03.458Z,43.73
2018-02-07T09:30:32.746Z,47.10
2018-02-07T09:33:02.015Z,50.33
2018-02-07T09:35:31.774Z,45.97
2018-02-07T09:38:01.025Z,45.30
2018-02-07T09:40:30.299Z,54.40
2018-02-07T09:42:59.557Z,46.17
2018-02-07T09:45:28.885Z,48.10
2018-02-07T09:47:58.908Z,40.43
2018-02-07T09:50:28.168Z,46.80
2018-02-07T09:52:57.452Z,40.03
2018-02-07T09:55:26.710Z,44.03
2018-02-07T09:57:56.746Z,34.47
2018-02-07T10:00:26.010Z,39.27
2018-02-07T10:02:55.346Z,40.97
2018-02-07T10:05:24.589Z,37.53
2018-02-07T10:07:53.865Z,40.80
2018-02-07T10:10:23.149Z,32.47
2018-02-07T10:12:52.418Z,39.27
2018-02-07T10:15:21.676Z,45.83
2018-02-07T10:17:50.940Z,41.57
2018-02-07T10:20:20.212Z,49.87
2018-02-07T10:22:49.476Z,43.10
2018-02-07T10:25:18.741Z,41.77
2018-02-07T10:27:48.020Z,47.13
2018-02-07T10:30:17.304Z,37.30
2018-02-07T10:32:46.629Z,42.80
2018-02-07T10:35:15.941Z,42.90
2018-02-07T10:37:46.145Z,41.40
2018-02-07T10:40:15.454Z,43.97
2018-02-07T10:42:44.697Z,41.43
2018-02-07T10:45:13.969Z,47.40
2018-02-07T10:47:43.994Z,45.87
2018-02-07T10:50:13.427Z,46.87
2018-02-07T10:52:42.695Z,56.07
2018-02-07T10:55:12.745Z,45.53
2018-02-07T10:57:42.046Z,45.43
2018-02-07T11:00:11.429Z,46.37
2018-02-07T11:02:41.438Z,42.50
2018-02-07T11:05:10.701Z,48.07
2018-02-07T11:07:39.988Z,44.30
2018-02-07T11:10:09.249Z,40.30
2018-02-07T11:12:38.521Z,48.53
2018-02-07T11:15:08.551Z,52.43
2018-02-07T11:17:37.852Z,47.80
2018-02-07T11:20:07.092Z,50.70
2018-02-07T11:22:36.343Z,46.57
2018-02-07T11:25:05.615Z,48.07
2018-02-07T11:27:34.873Z,47.47
2018-02-07T11:30:04.153Z,46.03
2018-02-07T11:32:33.433Z,47.00
2018-02-07T11:35:02.658Z,49.70
2018-02-07T11:37:32.693Z,42.67
2018-02-07T11:40:01.964Z,55.80
2018-02-07T11:42:31.237Z,43.00
2018-02-07T11:45:00.485Z,37.73
2018-02-07T11:47:30.576Z,55.53
2018-02-07T11:49:59.809Z,46.50
2018-02-07T11:52:29.058Z,51.17
2018-02-07T11:54:58.331Z,47.17
2018-02-07T11:57:27.637Z,42.87
2018-02-07T11:59:56.877Z,43.77
2018-02-07T12:02:26.862Z,49.00
2018-02-07T12:04:56.875Z,52.90
2018-02-07T12:07:26.093Z,52.80
2018-02-07T12:09:55.374Z,53.43
2018-02-07T12:12:24.714Z,52.60
2018-02-07T12:14:53.957Z,62.87
2018-02-07T12:17:23.220Z,58.87
2018-02-07T12:19:52.487Z,50.80
2018-02-07T12:22:21.740Z,50.20
2018-02-07T12:24:50.989Z,57.97
2018-02-07T12:27:20.244Z,65.53
2018-02-07T12:29:50.278Z,70.37
2018-02-07T12:32:19.517Z,60.40
2018-02-07T12:34:48.786Z,56.83
2018-02-07T12:37:18.042Z,49.50
2018-02-07T12:39:47.297Z,62.23
2018-02-07T12:42:16.533Z,47.47
2018-02-07T12:44:45.789Z,53.27
2018-02-07T12:47:15.029Z,48.27
2018-02-07T12:49:44.286Z,55.17
2018-02-07T12:52:14.233Z,50.40
2018-02-07T12:54:43.500Z,51.23
2018-02-07T12:57:12.799Z,58.37
2018-02-07T12:59:42.123Z,50.80
2018-02-07T13:02:11.398Z,50.00
2018-02-07T13:04:40.629Z,58.40
2018-02-07T13:07:09.907Z,47.00
2018-02-07T13:09:39.216Z,60.03
2018-02-07T13:12:08.487Z,55.13
2018-02-07T13:14:38.540Z,47.57
2018-02-07T13:17:07.820Z,47.03
2018-02-07T13:19:37.068Z,51.13
2018-02-07T13:22:06.332Z,53.57
2018-02-07T13:24:35.732Z,43.60
2018-02-07T13:27:04.973Z,52.03
2018-02-07T13:29:34.984Z,49.57
2018-02-07T13:32:04.286Z,62.90
2018-02-07T13:34:33.670Z,48.43
2018-02-07T13:37:02.906Z,60.53
2018-02-07T13:39:32.165Z,54.60
2018-02-07T13:42:01.414Z,45.27
2018-02-07T13:44:30.662Z,51.30
2018-02-07T13:46:59.906Z,54.00
2018-02-07T13:49:29.150Z,55.50
2018-02-07T13:51:58.409Z,58.27
2018-02-07T13:54:27.684Z,60.20
2018-02-07T13:56:56.931Z,52.83
2018-02-07T13:59:26.174Z,51.67
2018-02-07T14:01:55.432Z,54.93
2018-02-07T14:04:24.675Z,53.03
2018-02-07T14:06:53.930Z,42.80
2018-02-07T14:09:23.168Z,42.70
2018-02-07T14:11:52.457Z,50.40
2018-02-07T14:14:21.688Z,47.20
2018-02-07T14:16:50.926Z,55.77
2018-02-07T14:19:20.222Z,58.80
2018-02-07T14:21:50.181Z,46.80
2018-02-07T14:24:19.451Z,57.00
2018-02-07T14:26:48.701Z,57.37
2018-02-07T14:29:17.949Z,45.63
2018-02-07T14:31:48.721Z,39.03
2018-02-07T14:34:17.981Z,54.20
2018-02-07T14:36:47.212Z,47.70
2018-02-07T14:39:17.241Z,46.23
2018-02-07T14:41:46.487Z,59.43
2018-02-07T14:44:15.734Z,59.00
2018-02-07T14:46:44.996Z,42.23
2018-02-07T14:49:14.261Z,42.77
2018-02-07T14:51:43.672Z,43.27
2018-02-07T14:54:12.990Z,48.53
2018-02-07T14:56:42.251Z,48.87
2018-02-07T14:59:11.510Z,46.90
2018-02-07T15:01:40.762Z,37.83
2018-02-07T15:04:10.005Z,41.63
2018-02-07T15:06:39.289Z,40.57
2018-02-07T15:09:08.557Z,62.07
2018-02-07T15:11:37.806Z,46.07
2018-02-07T15:14:07.078Z,35.27
2018-02-07T15:16:36.460Z,42.90
2018-02-07T15:19:05.733Z,46.03
2018-02-07T15:21:35.766Z,43.80
2018-02-07T15:24:05.007Z,49.67
2018-02-07T15:26:34.268Z,54.87
2018-02-07T15:29:03.515Z,35.90
2018-02-07T15:31:32.942Z,51.77
2018-02-07T15:34:02.333Z,37.27
2018-02-07T15:36:31.893Z,46.17
2018-02-07T15:39:01.894Z,44.90
2018-02-07T15:41:31.165Z,47.87
2018-02-07T15:44:00.425Z,49.10
2018-02-07T15:46:29.711Z,56.47
2018-02-07T15:48:58.947Z,53.20
2018-02-07T15:51:28.990Z,50.97
2018-02-07T15:53:58.225Z,45.17
2018-02-07T15:56:27.507Z,47.60
2018-02-07T15:58:56.741Z,39.83
2018-02-07T16:01:26.125Z,51.17
2018-02-07T16:03:55.378Z,44.27
2018-02-07T16:06:24.633Z,48.00
2018-02-07T16:08:53.913Z,40.33
2018-02-07T16:11:23.213Z,49.17
2018-02-07T16:13:53.433Z,37.53
2018-02-07T16:16:23.528Z,35.20
2018-02-07T16:18:52.811Z,43.63
2018-02-07T16:21:22.058Z,38.17
2018-02-07T16:23:51.546Z,41.77
2018-02-07T16:26:20.794Z,43.23
2018-02-07T16:28:50.045Z,41.80
2018-02-07T16:31:20.185Z,39.17
2018-02-07T16:33:50.615Z,47.47
2018-02-07T16:36:19.831Z,38.57
2018-02-07T16:38:49.083Z,37.87
2018-02-07T16:41:18.412Z,46.23
2018-02-07T16:43:47.737Z,40.97
2018-02-07T16:46:17.012Z,46.80
2018-02-07T16:48:46.372Z,36.23
2018-02-07T16:51:15.623Z,45.97
2018-02-07T16:53:44.906Z,104.77
2018-02-07T16:56:14.170Z,109.03
2018-02-07T16:58:43.525Z,58.10
2018-02-07T17:01:12.801Z,58.90
2018-02-07T17:03:42.269Z,60.93
2018-02-07T17:06:11.549Z,60.23
2018-02-07T17:08:40.821Z,56.07
2018-02-07T17:11:10.105Z,61.47
2018-02-07T17:13:39.333Z,54.63
2018-02-07T17:16:08.595Z,75.23
2018-02-07T17:18:37.860Z,63.73
2018-02-07T17:21:07.211Z,58.73
2018-02-07T17:23:36.476Z,56.80
2018-02-07T17:26:07.260Z,70.70
2018-02-07T17:28:36.580Z,63.10
2018-02-07T17:31:05.886Z,49.87
2018-02-07T17:33:35.197Z,55.60
2018-02-07T17:36:04.481Z,53.70
2018-02-07T17:38:33.771Z,53.43
2018-02-07T17:41:03.009Z,66.77
2018-02-07T17:43:32.257Z,51.10
2018-02-07T17:46:01.513Z,53.53
2018-02-07T17:48:30.857Z,60.40
2018-02-07T17:51:00.173Z,45.17
2018-02-07T17:53:29.657Z,55.43
2018-02-07T17:55:58.902Z,51.00
2018-02-07T17:58:28.193Z,65.80
2018-02-07T18:00:57.464Z,54.17
2018-02-07T18:03:27.493Z,62.50
2018-02-07T18:05:56.736Z,56.13
2018-02-07T18:08:26.005Z,60.23
2018-02-07T18:10:55.257Z,56.20
2018-02-07T18:13:24.521Z,47.50
2018-02-07T18:15:53.778Z,54.70
2018-02-07T18:18:23.045Z,67.93
2018-02-07T18:20:52.306Z,62.97
2018-02-07T18:23:21.575Z,57.43
2018-02-07T18:25:50.810Z,61.43
2018-02-07T18:28:20.069Z,49.60
2018-02-07T18:30:49.934Z,61.87
2018-02-07T18:33:19.180Z,46.27
2018-02-07T18:35:48.428Z,61.53
2018-02-07T18:38:17.674Z,53.10
2018-02-07T18:40:46.930Z,52.23
2018-02-07T18:43:16.165Z,50.30
2018-02-07T18:45:45.461Z,51.73
2018-02-07T18:48:14.717Z,56.77
2018-02-07T18:50:44.008Z,57.77
2018-02-07T18:53:13.248Z,45.00
2018-02-07T18:55:42.514Z,60.10
2018-02-07T18:58:12.447Z,56.33
2018-02-07T19:00:42.490Z,65.47
2018-02-07T19:03:11.749Z,69.73
2018-02-07T19:05:41.021Z,64.80
2018-02-07T19:08:10.301Z,67.27
2018-02-07T19:10:39.561Z,72.37
2018-02-07T19:13:09.860Z,75.70
2018-02-07T19:15:39.938Z,74.60
2018-02-07T19:18:09.499Z,72.63
2018-02-07T19:20:38.772Z,76.10
2018-02-07T19:23:08.052Z,56.40
2018-02-07T19:25:37.298Z,67.00
2018-02-07T19:28:06.599Z,66.87
2018-02-07T19:30:35.917Z,53.33
2018-02-07T19:33:05.426Z,61.40
2018-02-07T19:35:34.691Z,52.57
2018-02-07T19:38:04.733Z,64.63
2018-02-07T19:40:33.986Z,55.23
2018-02-07T19:43:03.229Z,69.30
2018-02-07T19:45:32.552Z,54.77
2018-02-07T19:48:01.794Z,50.80
2018-02-07T19:50:31.815Z,61.17
2018-02-07T19:53:01.101Z,61.20
2018-02-07T19:55:30.342Z,60.43
2018-02-07T19:57:59.594Z,59.37
2018-02-07T20:00:28.888Z,60.30
2018-02-07T20:02:58.133Z,56.47
2018-02-07T20:05:27.386Z,51.17
2018-02-07T20:07:56.654Z,59.00
2018-02-07T20:10:26.593Z,49.80
2018-02-07T20:12:55.870Z,50.50
2018-02-07T20:15:25.874Z,53.40
2018-02-07T20:17:55.159Z,53.50
2018-02-07T20:20:24.406Z,61.50
2018-02-07T20:22:53.741Z,56.87
2018-02-07T20:25:22.986Z,54.00
2018-02-07T20:27:52.261Z,59.63
2018-02-07T20:30:21.530Z,50.37
2018-02-07T20:32:50.832Z,55.73
2018-02-07T20:35:20.866Z,65.93
2018-02-07T20:37:50.112Z,67.10
2018-02-07T20:40:19.402Z,65.50
2018-02-07T20:42:48.690Z,61.77
2018-02-07T20:45:18.753Z,64.37
2018-02-07T20:47:48.056Z,58.30
2018-02-07T20:50:17.319Z,72.73
2018-02-07T20:52:46.619Z,71.17
2018-02-07T20:55:15.890Z,52.03
2018-02-07T20:57:45.170Z,61.43
2018-02-07T21:00:14.431Z,69.87
2018-02-07T21:02:44.130Z,61.83
2018-02-07T21:05:14.150Z,68.53
2018-02-07T21:07:43.422Z,57.87
2018-02-07T21:10:12.712Z,70.50
2018-02-07T21:12:42.142Z,63.93
2018-02-07T21:15:12.205Z,59.17
2018-02-07T21:17:42.314Z,68.23
2018-02-07T21:20:11.596Z,69.87
2018-02-07T21:22:41.013Z,57.77
2018-02-07T21:25:10.278Z,64.27
2018-02-07T21:27:39.556Z,67.83
2018-02-07T21:30:08.922Z,61.50
2018-02-07T21:32:38.249Z,58.43
2018-02-07T21:35:08.273Z,72.47
2018-02-07T21:37:37.501Z,62.80
2018-02-07T21:40:06.779Z,60.93
2018-02-07T21:42:36.066Z,68.30
2018-02-07T21:45:05.352Z,74.67
2018-02-07T21:47:34.546Z,65.57
2018-02-07T21:50:03.845Z,58.60
2018-02-07T21:52:33.970Z,68.80
2018-02-07T21:55:03.302Z,67.73
2018-02-07T21:57:32.834Z,70.13
2018-02-07T22:00:02.094Z,62.13
2018-02-07T22:02:31.402Z,71.63
2018-02-07T22:05:00.675Z,64.70
2018-02-07T22:07:29.986Z,66.27
2018-02-07T22:09:59.250Z,61.77
2018-02-07T22:12:28.553Z,61.13
2018-02-07T22:14:57.992Z,65.27
2018-02-07T22:17:28.062Z,61.20
2018-02-07T22:19:57.293Z,56.63
2018-02-07T22:22:26.693Z,87.60
2018-02-07T22:24:55.944Z,73.87
2018-02-07T22:27:25.238Z,83.10
2018-02-07T22:29:54.470Z,79.63
2018-02-07T22:32:23.717Z,71.80
2018-02-07T22:34:53.777Z,75.10
2018-02-07T22:37:23.041Z,64.13
2018-02-07T22:39:52.321Z,71.23
2018-02-07T22:42:21.628Z,62.03
2018-02-07T22:44:50.961Z,67.57
2018-02-07T22:47:20.235Z,61.47
2018-02-07T22:49:49.508Z,60.47
2018-02-07T22:52:18.768Z,78.67
2018-02-07T22:54:48.125Z,50.37
2018-02-07T22:57:17.385Z,61.40
2018-02-07T22:59:46.642Z,62.50
2018-02-07T23:02:15.909Z,64.20
2018-02-07T23:04:45.179Z,67.17
2018-02-07T23:07:14.416Z,61.53
2018-02-07T23:09:43.697Z,68.10
2018-02-07T23:12:12.992Z,60.37
2018-02-07T23:14:42.246Z,67.50
2018-02-07T23:17:11.752Z,57.20
2018-02-07T23:19:41.001Z,78.70
2018-02-07T23:22:11.059Z,56.80
2018-02-07T23:24:40.378Z,68.00
2018-02-07T23:27:09.629Z,56.60
2018-02-07T23:29:38.961Z,58.90
2018-02-07T23:32:08.200Z,54.60
2018-02-07T23:34:37.491Z,65.67
2018-02-07T23:37:07.522Z,57.37
2018-02-07T23:39:36.754Z,52.83
2018-02-07T23:42:06.025Z,53.07
2018-02-07T23:44:35.339Z,61.03
2018-02-07T23:47:04.599Z,58.47
2018-02-07T23:49:33.843Z,67.93
2018-02-07T23:52:03.116Z,62.77
2018-02-07T23:54:32.366Z,52.77
2018-02-07T23:57:01.611Z,62.83
2018-02-07T23:59:31.748Z,58.50
